Time;durP1;ratioP1;P1;durP2;ratioP2;P2;SDS_P1;SDS_P2;PMS_P1;PMS_P2;Temp;Humidity;BMP_temperature;BMP_pressure;BME280_temperature;BME280_humidity;BME280_pressure;Samples;Min_cycle;Max_cycle;Signal;HPM_P1;HPM_P2
2023/04/25 00:00:45;;;;;;;;;;;20.20;54.90;;;;;;5065346;28;42945;-83
2023/04/25 00:03:11;;;;;;;;;;;20.10;54.30;;;;;;5065374;28;43863;-81
2023/04/25 00:05:36;;;;;;;;;;;20.20;54.90;;;;;;5065903;28;42882;-83
2023/04/25 00:08:02;;;;;;;;;;;20.10;54.30;;;;;;5065185;28;43549;-84
2023/04/25 00:10:28;;;;;;;;;;;20.10;54.40;;;;;;5065267;28;43034;-77
2023/04/25 00:12:53;;;;;;;;;;;20.20;54.30;;;;;;5065710;28;43359;-84
2023/04/25 00:15:19;;;;;;;;;;;20.10;54.20;;;;;;5065175;28;43007;-79
2023/04/25 00:17:45;;;;;;;;;;;20.10;54.20;;;;;;5064753;28;42929;-81
2023/04/25 00:20:11;;;;;;;;;;;20.20;54.30;;;;;;5065684;28;42892;-83
2023/04/25 00:22:39;;;;;;;;;;;20.10;54.70;;;;;;5065446;28;43833;-80
2023/04/25 00:25:06;;;;;;;;;;;20.10;54.20;;;;;;5065212;28;42743;-83
2023/04/25 00:27:31;;;;;;;;;;;20.10;54.20;;;;;;5064464;28;43609;-82
2023/04/25 00:29:57;;;;;;;;;;;20.10;54.30;;;;;;5064252;28;43039;-79
2023/04/25 00:32:22;;;;;;;;;;;20.10;54.30;;;;;;5064916;28;43005;-81
2023/04/25 00:34:48;;;;;;;;;;;20.10;54.20;;;;;;5064726;28;43009;-83
2023/04/25 00:37:13;;;;;;;;;;;20.20;54.10;;;;;;5064977;28;42942;-81
2023/04/25 00:39:39;;;;;;;;;;;20.20;54.00;;;;;;5064931;28;43051;-83
2023/04/25 00:42:05;;;;;;;;;;;20.20;53.90;;;;;;5065030;28;43283;-82
2023/04/25 00:44:32;;;;;;;;;;;20.30;53.90;;;;;;5064599;28;42914;-78
2023/04/25 00:46:57;;;;;;;;;;;20.20;53.80;;;;;;5064957;28;42949;-82
2023/04/25 00:49:23;;;;;;;;;;;20.30;53.80;;;;;;5064417;28;42894;-84
2023/04/25 00:51:48;;;;;;;;;;;20.30;53.80;;;;;;5064524;28;43538;-83
2023/04/25 00:54:15;;;;;;;;;;;20.30;54.40;;;;;;5064780;28;42926;-84
2023/04/25 00:56:41;;;;;;;;;;;20.30;53.70;;;;;;5064727;28;42761;-84
2023/04/25 00:59:06;;;;;;;;;;;20.30;53.70;;;;;;5064262;28;42913;-80
2023/04/25 01:01:32;;;;;;;;;;;20.30;53.80;;;;;;5064132;28;44269;-81
2023/04/25 01:03:58;;;;;;;;;;;20.20;53.80;;;;;;5064806;28;42890;-82
2023/04/25 01:06:24;;;;;;;;;;;20.20;53.90;;;;;;5064918;28;43012;-82
2023/04/25 01:08:50;;;;;;;;;;;20.20;53.90;;;;;;5064397;28;43164;-84
2023/04/25 01:11:16;;;;;;;;;;;20.30;54.30;;;;;;5064501;28;42960;-84
2023/04/25 01:13:41;;;;;;;;;;;20.20;54.00;;;;;;5064650;28;43200;-84
2023/04/25 01:16:07;;;;;;;;;;;20.20;54.60;;;;;;5064491;28;43751;-82
2023/04/25 01:18:33;;;;;;;;;;;20.20;53.90;;;;;;5064357;28;42989;-83
2023/04/25 01:21:16;;;;;;;;;;;20.20;53.90;;;;;;5063617;28;42930;-82
2023/04/25 01:23:42;;;;;;;;;;;20.20;53.90;;;;;;5064747;28;42807;-79
2023/04/25 01:26:11;;;;;;;;;;;20.20;53.80;;;;;;5064257;28;42795;-82
2023/04/25 01:28:37;;;;;;;;;;;20.20;54.30;;;;;;5065849;28;42851;-84
2023/04/25 01:31:03;;;;;;;;;;;20.20;53.80;;;;;;5067515;28;43733;-83
2023/04/25 01:33:29;;;;;;;;;;;20.20;53.80;;;;;;5067433;28;43129;-75
2023/04/25 01:35:54;;;;;;;;;;;20.00;53.70;;;;;;5067102;28;43143;-83
2023/04/25 01:38:20;;;;;;;;;;;20.20;54.30;;;;;;5067975;28;42988;-79
2023/04/25 01:40:47;;;;;;;;;;;;;;;;;;5067377;28;42838;-84
2023/04/25 01:43:14;;;;;;;;;;;20.20;53.50;;;;;;5067816;28;42825;-82
2023/04/25 01:45:40;;;;;;;;;;;20.20;53.50;;;;;;5067049;28;44381;-79
2023/04/25 01:48:09;;;;;;;;;;;20.20;53.60;;;;;;5067561;28;43021;-84
2023/04/25 01:50:35;;;;;;;;;;;20.20;53.40;;;;;;5067120;28;44067;-77
2023/04/25 01:53:01;;;;;;;;;;;20.20;53.40;;;;;;5067538;28;42831;-85
2023/04/25 01:55:27;;;;;;;;;;;20.20;53.30;;;;;;5066996;28;42907;-84
2023/04/25 01:57:53;;;;;;;;;;;20.30;53.40;;;;;;5067296;28;43016;-85
2023/04/25 02:00:18;;;;;;;;;;;20.20;53.40;;;;;;5067080;28;43556;-77
2023/04/25 02:02:44;;;;;;;;;;;20.30;53.40;;;;;;5067672;28;42859;-82
2023/04/25 02:05:10;;;;;;;;;;;;;;;;;;5067323;28;43525;-83
2023/04/25 02:07:35;;;;;;;;;;;20.20;53.60;;;;;;5067249;28;42950;-83
2023/04/25 02:10:01;;;;;;;;;;;20.10;53.80;;;;;;5067458;28;43416;-84
2023/04/25 02:12:27;;;;;;;;;;;20.10;53.90;;;;;;5067111;28;42888;-84
2023/04/25 02:14:52;;;;;;;;;;;20.00;54.50;;;;;;5067003;28;42733;-82
2023/04/25 02:17:18;;;;;;;;;;;19.90;54.10;;;;;;5067093;28;42962;-78
2023/04/25 02:19:44;;;;;;;;;;;19.90;54.20;;;;;;5066816;28;43712;-84
2023/04/25 02:22:10;;;;;;;;;;;19.90;54.20;;;;;;5067405;28;42960;-84
2023/04/25 02:24:35;;;;;;;;;;;19.90;54.80;;;;;;5066822;28;42883;-80
2023/04/25 02:27:01;;;;;;;;;;;19.90;54.20;;;;;;5066933;28;42899;-84
2023/04/25 02:29:27;;;;;;;;;;;19.90;54.20;;;;;;5066782;28;43441;-85
2023/04/25 02:31:52;;;;;;;;;;;19.90;54.30;;;;;;5066462;28;42999;-85
2023/04/25 02:34:18;;;;;;;;;;;19.90;54.80;;;;;;5066657;28;43673;-83
2023/04/25 02:36:43;;;;;;;;;;;19.90;54.30;;;;;;5066464;28;43011;-84
2023/04/25 02:39:10;;;;;;;;;;;19.90;54.30;;;;;;5065587;28;43475;-84
2023/04/25 02:41:36;;;;;;;;;;;;;;;;;;5065737;28;42942;-85
2023/04/25 02:44:02;;;;;;;;;;;;;;;;;;5066645;28;42968;-85
2023/04/25 02:46:28;;;;;;;;;;;19.90;54.40;;;;;;5067140;28;42956;-84
2023/04/25 02:48:53;;;;;;;;;;;19.90;54.40;;;;;;5066595;28;43391;-84
2023/04/25 02:51:19;;;;;;;;;;;19.80;54.30;;;;;;5066673;28;42953;-84
2023/04/25 02:53:44;;;;;;;;;;;19.80;54.30;;;;;;5066663;28;43158;-84
2023/04/25 02:56:10;;;;;;;;;;;19.90;54.90;;;;;;5066715;28;42909;-84
2023/04/25 02:58:36;;;;;;;;;;;19.80;54.20;;;;;;5065004;28;44871;-85
2023/04/25 03:01:01;;;;;;;;;;;19.90;54.90;;;;;;5066455;28;42963;-82
2023/04/25 03:03:27;;;;;;;;;;;19.90;54.30;;;;;;5065940;28;43001;-85
2023/04/25 03:05:52;;;;;;;;;;;19.80;54.10;;;;;;5065646;28;43067;-84
2023/04/25 03:08:18;;;;;;;;;;;19.90;54.10;;;;;;5065932;28;43539;-82
2023/04/25 03:10:44;;;;;;;;;;;19.80;54.50;;;;;;5066207;28;42818;-82
2023/04/25 03:13:10;;;;;;;;;;;19.90;54.10;;;;;;5066026;28;43138;-84
2023/04/25 03:15:35;;;;;;;;;;;19.80;54.00;;;;;;5066031;28;43016;-84
2023/04/25 03:18:01;;;;;;;;;;;19.90;54.00;;;;;;5065100;28;42930;-84
2023/04/25 03:20:26;;;;;;;;;;;19.90;54.00;;;;;;5065683;28;42880;-84
2023/04/25 03:22:52;;;;;;;;;;;19.90;54.00;;;;;;5065656;28;44203;-83
2023/04/25 03:25:18;;;;;;;;;;;19.90;54.10;;;;;;5066075;28;43015;-83
2023/04/25 03:27:43;;;;;;;;;;;19.80;54.10;;;;;;5066173;28;43016;-80
2023/04/25 03:30:09;;;;;;;;;;;19.90;54.10;;;;;;5066273;28;43020;-84
2023/04/25 03:32:34;;;;;;;;;;;19.90;54.10;;;;;;5065843;28;43886;-82
2023/04/25 03:35:00;;;;;;;;;;;19.90;54.60;;;;;;5065925;28;42941;-83
2023/04/25 03:37:25;;;;;;;;;;;19.90;53.90;;;;;;5065705;28;43039;-83
2023/04/25 03:39:51;;;;;;;;;;;19.90;54.40;;;;;;5065512;28;43311;-83
2023/04/25 03:42:17;;;;;;;;;;;19.90;53.90;;;;;;5065708;28;43472;-84
2023/04/25 03:44:43;;;;;;;;;;;19.80;53.80;;;;;;5064853;28;43000;-83
2023/04/25 03:47:08;;;;;;;;;;;19.80;54.30;;;;;;5065369;28;42988;-83
2023/04/25 03:49:34;;;;;;;;;;;19.90;54.50;;;;;;5065754;28;42946;-84
2023/04/25 03:52:00;;;;;;;;;;;;;;;;;;5065112;28;42934;-84
2023/04/25 03:54:25;;;;;;;;;;;19.90;54.10;;;;;;5065447;28;42986;-84
2023/04/25 03:56:51;;;;;;;;;;;19.80;53.90;;;;;;5065632;28;42784;-84
2023/04/25 03:59:16;;;;;;;;;;;19.90;54.00;;;;;;5065338;28;42899;-83
2023/04/25 04:01:42;;;;;;;;;;;19.90;53.70;;;;;;5065320;28;43615;-82
2023/04/25 04:04:07;;;;;;;;;;;20.00;53.40;;;;;;5065216;28;42919;-84
2023/04/25 04:06:33;;;;;;;;;;;20.00;54.20;;;;;;5065115;28;43553;-84
2023/04/25 04:08:59;;;;;;;;;;;20.00;53.50;;;;;;5065614;28;42825;-85
2023/04/25 04:11:24;;;;;;;;;;;20.10;53.40;;;;;;5064740;28;43860;-84
2023/04/25 04:13:50;;;;;;;;;;;20.10;53.80;;;;;;5065749;28;43047;-83
2023/04/25 04:16:15;;;;;;;;;;;20.20;53.20;;;;;;5065526;28;42867;-84
2023/04/25 04:18:41;;;;;;;;;;;20.10;53.20;;;;;;5065552;28;43061;-84
2023/04/25 04:21:06;;;;;;;;;;;20.20;53.30;;;;;;5065137;28;43524;-84
2023/04/25 04:23:32;;;;;;;;;;;20.20;53.20;;;;;;5065349;28;42902;-83
2023/04/25 04:25:57;;;;;;;;;;;20.20;53.30;;;;;;5065186;28;42964;-82
2023/04/25 04:28:23;;;;;;;;;;;20.20;53.20;;;;;;5065344;28;42886;-83
2023/04/25 04:30:50;;;;;;;;;;;20.20;53.30;;;;;;5065243;28;43618;-85
2023/04/25 04:33:18;;;;;;;;;;;20.10;53.30;;;;;;5065126;28;43049;-83
2023/04/25 04:35:44;;;;;;;;;;;;;;;;;;5064596;28;42874;-84
2023/04/25 04:38:11;;;;;;;;;;;20.10;53.40;;;;;;5064897;28;42939;-83
2023/04/25 04:40:37;;;;;;;;;;;20.10;53.30;;;;;;5064731;28;43319;-84
2023/04/25 04:43:02;;;;;;;;;;;19.90;53.90;;;;;;5064583;28;43267;-84
2023/04/25 04:45:28;;;;;;;;;;;19.90;53.90;;;;;;5062847;28;45129;-83
2023/04/25 04:47:55;;;;;;;;;;;19.80;54.00;;;;;;5064789;28;42998;-80
2023/04/25 04:50:20;;;;;;;;;;;19.90;54.70;;;;;;5064911;28;43401;-84
2023/04/25 04:52:46;;;;;;;;;;;19.80;54.20;;;;;;5065100;28;42986;-84
2023/04/25 04:55:11;;;;;;;;;;;19.90;53.90;;;;;;5064820;28;42770;-84
2023/04/25 04:57:38;;;;;;;;;;;19.90;53.80;;;;;;5064557;28;43032;-84
2023/04/25 05:00:05;;;;;;;;;;;20.00;53.70;;;;;;5064314;28;42946;-84
2023/04/25 05:02:30;;;;;;;;;;;20.10;54.10;;;;;;5064131;28;42940;-84
2023/04/25 05:04:56;;;;;;;;;;;20.10;53.40;;;;;;5067556;28;43474;-84
2023/04/25 05:07:21;;;;;;;;;;;20.20;53.90;;;;;;5068259;28;42998;-83
2023/04/25 05:09:47;;;;;;;;;;;20.10;53.30;;;;;;5068259;28;42934;-81
2023/04/25 05:12:12;;;;;;;;;;;20.00;53.60;;;;;;5068484;28;42958;-83
2023/04/25 05:14:38;;;;;;;;;;;20.00;53.80;;;;;;5067889;28;42833;-83
2023/04/25 05:17:08;;;;;;;;;;;19.90;53.70;;;;;;5068112;28;42946;-84
2023/04/25 05:19:34;;;;;;;;;;;19.90;54.30;;;;;;5067703;28;43367;-83
2023/04/25 05:21:59;;;;;;;;;;;19.90;54.00;;;;;;5067811;28;43012;-83
2023/04/25 05:24:25;;;;;;;;;;;19.90;53.90;;;;;;5067373;28;43555;-84
2023/04/25 05:26:50;;;;;;;;;;;20.00;53.70;;;;;;5067729;28;42874;-84
2023/04/25 05:29:16;;;;;;;;;;;20.00;54.00;;;;;;5067667;28;43345;-79
2023/04/25 05:31:41;;;;;;;;;;;20.00;53.20;;;;;;5067854;28;42930;-83
2023/04/25 05:34:07;;;;;;;;;;;20.00;53.20;;;;;;5067572;28;43609;-83
2023/04/25 05:36:33;;;;;;;;;;;;;;;;;;5067517;28;42974;-83
2023/04/25 05:38:58;;;;;;;;;;;20.00;53.30;;;;;;5067691;28;43318;-83
2023/04/25 05:41:24;;;;;;;;;;;20.00;53.30;;;;;;5067861;28;42922;-84
2023/04/25 05:43:50;;;;;;;;;;;19.90;53.30;;;;;;5067542;28;43262;-83
2023/04/25 05:46:16;;;;;;;;;;;20.00;53.10;;;;;;5067974;28;42889;-82
2023/04/25 05:48:42;;;;;;;;;;;20.00;53.00;;;;;;5066831;28;43089;-82
2023/04/25 05:51:08;;;;;;;;;;;20.00;52.90;;;;;;5067220;28;42991;-83
2023/04/25 05:53:34;;;;;;;;;;;20.20;52.80;;;;;;5067776;28;42944;-83
2023/04/25 05:56:00;;;;;;;;;;;;;;;;;;5067676;28;42923;-82
2023/04/25 05:58:25;;;;;;;;;;;20.10;52.70;;;;;;5067922;28;42869;-83
2023/04/25 06:00:51;;;;;;;;;;;20.10;52.80;;;;;;5065582;28;43023;-82
2023/04/25 06:03:17;;;;;;;;;;;20.20;53.20;;;;;;5067175;28;44646;-82
2023/04/25 06:05:42;;;;;;;;;;;;;;;;;;5067166;28;43040;-82
2023/04/25 06:08:10;;;;;;;;;;;20.10;53.00;;;;;;5067257;28;43647;-83
2023/04/25 06:10:36;;;;;;;;;;;19.90;53.70;;;;;;5067227;28;43021;-84
2023/04/25 06:13:01;;;;;;;;;;;19.80;53.40;;;;;;5067391;28;43201;-83
2023/04/25 06:15:27;;;;;;;;;;;19.90;53.40;;;;;;5066066;28;42784;-84
2023/04/25 06:17:52;;;;;;;;;;;20.00;53.00;;;;;;5066683;28;43832;-84
2023/04/25 06:20:22;;;;;;;;;;;20.00;52.80;;;;;;5066566;28;43105;-83
2023/04/25 06:22:48;;;;;;;;;;;20.00;52.80;;;;;;5066339;28;43592;-81
2023/04/25 06:25:14;;;;;;;;;;;20.00;53.10;;;;;;5066416;28;42919;-85
2023/04/25 06:27:40;;;;;;;;;;;;;;;;;;5066524;28;42894;-85
2023/04/25 06:30:06;;;;;;;;;;;20.10;52.70;;;;;;5066845;28;42914;-85
2023/04/25 06:32:32;;;;;;;;;;;;;;;;;;5066547;28;42882;-84
2023/04/25 06:34:57;;;;;;;;;;;19.90;52.40;;;;;;5067736;28;42675;-80
2023/04/25 06:37:23;;;;;;;;;;;20.10;52.60;;;;;;5066767;28;44327;-85
2023/04/25 06:39:49;;;;;;;;;;;20.10;52.50;;;;;;5066841;28;43028;-85
2023/04/25 06:42:14;;;;;;;;;;;20.10;52.90;;;;;;5066687;28;42982;-85
2023/04/25 06:44:40;;;;;;;;;;;20.10;53.00;;;;;;5065568;28;43353;-84
2023/04/25 06:47:05;;;;;;;;;;;20.10;52.40;;;;;;5065835;28;43315;-84
2023/04/25 06:49:31;;;;;;;;;;;20.10;52.40;;;;;;5066241;28;43036;-85
2023/04/25 06:51:56;;;;;;;;;;;20.10;52.50;;;;;;5065828;28;43375;-84
2023/04/25 06:54:22;;;;;;;;;;;20.00;52.40;;;;;;5065202;28;43039;-85
2023/04/25 06:56:47;;;;;;;;;;;20.10;52.40;;;;;;5066499;28;43579;-84
2023/04/25 06:59:13;;;;;;;;;;;20.00;52.50;;;;;;5065047;28;42834;-82
2023/04/25 07:01:38;;;;;;;;;;;20.00;52.50;;;;;;5067087;28;43703;-84
2023/04/25 07:04:04;;;;;;;;;;;20.10;52.40;;;;;;5066527;28;42885;-85
2023/04/25 07:06:30;;;;;;;;;;;20.10;52.30;;;;;;5066623;28;42896;-84
2023/04/25 07:08:56;;;;;;;;;;;20.10;52.20;;;;;;5066395;28;43001;-84
2023/04/25 07:11:21;;;;;;;;;;;20.10;52.20;;;;;;5066670;28;43375;-85
2023/04/25 07:13:47;;;;;;;;;;;20.00;52.20;;;;;;5065998;28;43025;-84
2023/04/25 07:16:12;;;;;;;;;;;20.00;52.40;;;;;;5065393;28;43065;-84
2023/04/25 07:18:38;;;;;;;;;;;20.00;52.90;;;;;;5065967;28;42947;-84
2023/04/25 07:21:04;;;;;;;;;;;20.10;52.70;;;;;;5065887;28;42920;-84
2023/04/25 07:23:29;;;;;;;;;;;20.10;52.70;;;;;;5066415;28;42856;-83
2023/04/25 07:25:55;;;;;;;;;;;20.10;52.30;;;;;;5065427;28;43035;-81
2023/04/25 07:28:21;;;;;;;;;;;20.10;52.30;;;;;;5066051;28;43031;-79
2023/04/25 07:30:47;;;;;;;;;;;20.10;52.30;;;;;;5065945;28;42937;-83
2023/04/25 07:33:12;;;;;;;;;;;20.10;52.20;;;;;;5065583;28;42864;-80
2023/04/25 07:35:38;;;;;;;;;;;20.10;52.20;;;;;;5065848;28;43914;-83
2023/04/25 07:38:03;;;;;;;;;;;20.20;52.80;;;;;;5065907;28;43005;-82
2023/04/25 07:40:29;;;;;;;;;;;19.90;52.00;;;;;;5065068;28;43436;-83
2023/04/25 07:42:55;;;;;;;;;;;20.10;52.70;;;;;;5065771;28;42964;-84
2023/04/25 07:45:20;;;;;;;;;;;20.00;52.10;;;;;;5066003;28;42998;-84
2023/04/25 07:47:46;;;;;;;;;;;20.10;52.20;;;;;;5065732;28;42772;-84
2023/04/25 07:50:11;;;;;;;;;;;20.10;52.20;;;;;;5064806;28;43598;-84
2023/04/25 07:52:37;;;;;;;;;;;20.10;52.20;;;;;;5064995;28;42993;-84
2023/04/25 07:55:03;;;;;;;;;;;20.00;52.10;;;;;;5065727;28;43247;-81
2023/04/25 07:57:29;;;;;;;;;;;20.10;52.20;;;;;;5065489;28;42831;-80
2023/04/25 07:59:54;;;;;;;;;;;20.00;52.20;;;;;;5065658;28;43476;-81
2023/04/25 08:02:19;;;;;;;;;;;20.00;52.20;;;;;;5066011;28;42957;-83
2023/04/25 08:04:46;;;;;;;;;;;20.00;52.00;;;;;;5064236;28;43597;-83
2023/04/25 08:07:11;;;;;;;;;;;20.00;52.10;;;;;;5064488;28;42960;-84
2023/04/25 08:09:37;;;;;;;;;;;20.00;53.00;;;;;;5065495;28;42970;-84
2023/04/25 08:12:03;;;;;;;;;;;19.80;53.10;;;;;;5065062;28;42922;-81
2023/04/25 08:14:31;;;;;;;;;;;19.80;53.10;;;;;;5065574;28;43553;-84
2023/04/25 08:16:56;;;;;;;;;;;19.80;53.10;;;;;;5065267;28;42954;-83
2023/04/25 08:19:22;;;;;;;;;;;19.80;53.10;;;;;;5065000;28;43328;-85
2023/04/25 08:21:47;;;;;;;;;;;19.80;53.10;;;;;;5065202;28;42914;-84
2023/04/25 08:24:13;;;;;;;;;;;19.70;53.00;;;;;;5065433;28;43543;-84
2023/04/25 08:26:41;;;;;;;;;;;19.70;53.30;;;;;;5065078;28;42967;-81
2023/04/25 08:29:07;;;;;;;;;;;19.70;53.30;;;;;;5064832;28;43535;-84
2023/04/25 08:31:32;;;;;;;;;;;19.70;53.30;;;;;;5065574;28;42804;-83
2023/04/25 08:33:58;;;;;;;;;;;19.80;53.80;;;;;;5065356;28;42964;-83
2023/04/25 08:36:23;;;;;;;;;;;19.90;53.60;;;;;;5065021;28;42971;-83
2023/04/25 08:38:49;;;;;;;;;;;19.90;52.90;;;;;;5063637;28;43410;-83
2023/04/25 08:41:15;;;;;;;;;;;19.90;52.70;;;;;;5064918;28;42886;-84
2023/04/25 08:43:42;;;;;;;;;;;19.90;52.80;;;;;;5064605;28;44220;-84
2023/04/25 08:46:07;;;;;;;;;;;20.00;52.90;;;;;;5064949;28;43142;-83
2023/04/25 08:48:35;;;;;;;;;;;20.00;53.00;;;;;;5064737;28;43225;-80
2023/04/25 08:51:02;;;;;;;;;;;19.90;53.00;;;;;;5065473;28;43499;-79
2023/04/25 08:53:30;;;;;;;;;;;19.90;53.00;;;;;;5065022;28;42834;-81
2023/04/25 08:55:56;;;;;;;;;;;20.00;53.50;;;;;;5064560;28;42913;-83
2023/04/25 08:58:22;;;;;;;;;;;20.00;53.30;;;;;;5064541;28;43487;-78
2023/04/25 09:00:49;;;;;;;;;;;20.10;52.30;;;;;;5064731;28;42914;-80
2023/04/25 09:03:15;;;;;;;;;;;20.00;52.70;;;;;;5063168;28;43502;-83
2023/04/25 09:05:41;;;;;;;;;;;20.00;52.30;;;;;;5064769;28;42846;-84
2023/04/25 09:08:06;;;;;;;;;;;20.00;52.40;;;;;;5064064;28;44285;-83
2023/04/25 09:10:32;;;;;;;;;;;20.00;53.10;;;;;;5064193;28;42902;-84
2023/04/25 09:13:39;;;;;;;;;;;20.00;52.60;;;;;;5063893;28;43559;-79
2023/04/25 09:16:04;;;;;;;;;;;20.00;52.60;;;;;;5061770;28;42815;-83
2023/04/25 09:18:33;;;;;;;;;;;20.00;52.60;;;;;;5064601;28;43376;-82
2023/04/25 09:21:09;;;;;;;;;;;20.00;52.60;;;;;;5064567;28;42896;-83
2023/04/25 09:23:44;;;;;;;;;;;20.00;52.70;;;;;;5062467;28;45041;-83
2023/04/25 09:26:09;;;;;;;;;;;20.00;52.70;;;;;;5064500;28;42965;-81
2023/04/25 09:28:35;;;;;;;;;;;20.00;52.90;;;;;;5063032;28;44347;-79
2023/04/25 09:31:01;;;;;;;;;;;20.00;52.90;;;;;;5064128;28;42998;-83
2023/04/25 09:33:34;;;;;;;;;;;20.00;52.90;;;;;;5062357;28;43740;-80
2023/04/25 09:36:04;;;;;;;;;;;20.00;52.90;;;;;;5064910;28;42895;-81
2023/04/25 09:38:30;;;;;;;;;;;20.00;52.90;;;;;;5064403;28;43499;-78
2023/04/25 09:40:56;;;;;;;;;;;20.00;52.90;;;;;;5063675;28;42790;-83
2023/04/25 09:43:22;;;;;;;;;;;20.00;52.90;;;;;;5062169;28;42917;-82
2023/04/25 09:45:48;;;;;;;;;;;20.00;52.80;;;;;;5063833;28;43083;-85
2023/04/25 09:48:22;;;;;;;;;;;20.00;52.80;;;;;;5063267;28;43658;-82
2023/04/25 09:51:03;;;;;;;;;;;20.00;53.20;;;;;;5067148;28;43048;-83
2023/04/25 09:53:29;;;;;;;;;;;20.00;53.20;;;;;;5067390;28;43694;-81
2023/04/25 09:55:56;;;;;;;;;;;20.00;52.80;;;;;;5067600;28;42922;-84
2023/04/25 09:58:23;;;;;;;;;;;20.00;52.80;;;;;;5066959;28;43660;-84
2023/04/25 10:00:49;;;;;;;;;;;20.00;52.80;;;;;;5067410;28;42938;-84
2023/04/25 10:03:15;;;;;;;;;;;20.00;52.80;;;;;;5067493;28;42763;-83
2023/04/25 10:05:41;;;;;;;;;;;20.00;52.80;;;;;;5067474;28;42834;-84
2023/04/25 10:08:08;;;;;;;;;;;20.00;52.80;;;;;;5067397;28;43393;-80
2023/04/25 10:10:38;;;;;;;;;;;20.00;53.40;;;;;;5067153;28;42858;-85
2023/04/25 10:13:05;;;;;;;;;;;20.00;52.80;;;;;;5064667;28;44212;-83
2023/04/25 10:15:31;;;;;;;;;;;20.00;53.30;;;;;;5066968;28;42948;-84
2023/04/25 10:17:56;;;;;;;;;;;20.00;52.90;;;;;;5067025;28;42967;-81
2023/04/25 10:20:22;;;;;;;;;;;20.00;52.80;;;;;;5067297;28;43027;-84
2023/04/25 10:22:48;;;;;;;;;;;20.00;52.80;;;;;;5067029;28;43390;-84
2023/04/25 10:25:14;;;;;;;;;;;20.10;52.90;;;;;;5066666;28;42795;-81
2023/04/25 10:27:40;;;;;;;;;;;20.00;52.80;;;;;;5064436;28;43628;-84
2023/04/25 10:30:06;;;;;;;;;;;20.00;52.80;;;;;;5067100;28;42872;-84
2023/04/25 10:32:34;;;;;;;;;;;19.90;52.70;;;;;;5066941;28;42868;-83
2023/04/25 10:35:13;;;;;;;;;;;20.00;52.70;;;;;;5066997;28;42982;-84
2023/04/25 10:37:38;;;;;;;;;;;20.00;52.60;;;;;;5066777;28;42858;-84
2023/04/25 10:40:10;;;;;;;;;;;20.10;52.70;;;;;;5066388;28;42884;-83
2023/04/25 10:42:36;;;;;;;;;;;20.10;53.10;;;;;;5066301;28;42796;-84
2023/04/25 10:45:04;;;;;;;;;;;20.00;52.60;;;;;;5066679;28;43165;-85
2023/04/25 10:47:36;;;;;;;;;;;20.10;53.10;;;;;;5066725;28;43683;-83
2023/04/25 10:50:06;;;;;;;;;;;20.00;52.60;;;;;;5066268;28;43032;-84
2023/04/25 10:52:32;;;;;;;;;;;20.00;52.50;;;;;;5066022;28;43658;-85
2023/04/25 10:54:58;;;;;;;;;;;20.10;52.60;;;;;;5066989;28;43129;-83
2023/04/25 10:57:33;;;;;;;;;;;20.00;52.50;;;;;;5066793;28;43661;-78
2023/04/25 11:00:05;;;;;;;;;;;20.00;52.50;;;;;;5066577;28;42908;-84
2023/04/25 11:02:30;;;;;;;;;;;20.10;53.00;;;;;;5065841;28;42781;-80
2023/04/25 11:04:56;;;;;;;;;;;20.00;53.00;;;;;;5065931;28;42962;-78
2023/04/25 11:07:40;;;;;;;;;;;20.00;52.40;;;;;;5064208;28;44375;-80
2023/04/25 11:10:06;;;;;;;;;;;20.10;52.80;;;;;;5066216;28;42890;-79
2023/04/25 11:12:32;;;;;;;;;;;20.00;52.80;;;;;;5066131;28;42927;-79
2023/04/25 11:15:15;;;;;;;;;;;20.10;52.90;;;;;;5066090;28;43007;-82
2023/04/25 11:17:41;;;;;;;;;;;20.10;52.30;;;;;;5066164;28;43987;-83
2023/04/25 11:20:11;;;;;;;;;;;20.00;52.20;;;;;;5066462;28;42848;-84
2023/04/25 11:22:37;;;;;;;;;;;20.10;52.80;;;;;;5066287;28;43274;-84
2023/04/25 11:25:06;;;;;;;;;;;20.10;52.30;;;;;;5065771;28;42985;-85
2023/04/25 11:27:34;;;;;;;;;;;20.10;52.70;;;;;;5064163;28;63428;-86
2023/04/25 11:30:15;;;;;;;;;;;20.10;52.30;;;;;;5065825;28;43003;-84
2023/04/25 11:32:42;;;;;;;;;;;20.10;52.30;;;;;;5064212;28;43028;-85
2023/04/25 11:35:09;;;;;;;;;;;20.10;52.30;;;;;;5065638;28;43072;-84
2023/04/25 11:37:34;;;;;;;;;;;20.10;52.30;;;;;;5065847;28;42819;-85
2023/04/25 11:40:00;;;;;;;;;;;20.00;52.20;;;;;;5065199;28;43025;-84
2023/04/25 11:42:26;;;;;;;;;;;;;;;;;;5065271;28;43079;-85
2023/04/25 11:44:52;;;;;;;;;;;20.10;52.20;;;;;;5065649;28;42987;-84
2023/04/25 11:47:17;;;;;;;;;;;20.10;52.20;;;;;;5065712;28;42844;-80
2023/04/25 11:49:43;;;;;;;;;;;20.10;52.20;;;;;;5065962;28;43020;-84
2023/04/25 11:52:08;;;;;;;;;;;20.00;52.10;;;;;;5066100;28;43534;-81
2023/04/25 11:54:37;;;;;;;;;;;20.10;52.00;;;;;;5066005;28;42879;-78
2023/04/25 11:57:03;;;;;;;;;;;20.10;52.40;;;;;;5065740;28;42988;-84
2023/04/25 11:59:29;;;;;;;;;;;20.10;52.50;;;;;;5065967;28;42829;-84
2023/04/25 12:01:54;;;;;;;;;;;20.10;52.10;;;;;;5065357;28;43021;-84
2023/04/25 12:04:24;;;;;;;;;;;20.10;52.10;;;;;;5065629;28;42938;-79
2023/04/25 12:06:50;;;;;;;;;;;20.10;52.60;;;;;;5065132;28;43533;-81
2023/04/25 12:09:18;;;;;;;;;;;20.10;52.10;;;;;;5064919;28;42874;-84
2023/04/25 12:11:47;;;;;;;;;;;20.10;52.70;;;;;;5065091;28;43631;-80
2023/04/25 12:14:29;;;;;;;;;;;20.10;52.00;;;;;;5064675;28;42964;-84
2023/04/25 12:16:57;;;;;;;;;;;20.10;52.00;;;;;;5065153;28;44566;-83
2023/04/25 12:19:22;;;;;;;;;;;20.10;52.00;;;;;;5064904;28;43045;-83
2023/04/25 12:21:48;;;;;;;;;;;20.10;52.00;;;;;;5065142;28;43069;-85
2023/04/25 12:24:14;;;;;;;;;;;;;;;;;;5065444;28;43593;-84
2023/04/25 12:26:59;;;;;;;;;;;20.10;51.90;;;;;;5064884;28;42840;-80
2023/04/25 12:29:26;;;;;;;;;;;20.10;52.40;;;;;;5064931;28;42918;-84
2023/04/25 12:31:52;;;;;;;;;;;20.20;51.90;;;;;;5065201;28;43165;-85
2023/04/25 12:34:20;;;;;;;;;;;20.20;51.70;;;;;;5065041;28;42998;-84
2023/04/25 12:36:46;;;;;;;;;;;20.20;51.70;;;;;;5064470;28;43333;-82
2023/04/25 12:39:19;;;;;;;;;;;20.20;51.70;;;;;;5065181;28;42977;-80
2023/04/25 12:41:45;;;;;;;;;;;20.20;52.10;;;;;;5065520;28;43512;-81
2023/04/25 12:44:11;;;;;;;;;;;20.20;51.70;;;;;;5063152;28;42822;-83
2023/04/25 12:46:36;;;;;;;;;;;20.00;51.70;;;;;;5064421;28;44562;-82
2023/04/25 12:49:03;;;;;;;;;;;20.20;52.30;;;;;;5064443;28;43077;-82
2023/04/25 12:51:29;;;;;;;;;;;20.20;51.80;;;;;;5063697;28;43535;-83
2023/04/25 12:53:54;;;;;;;;;;;20.20;51.80;;;;;;5064955;28;42756;-82
2023/04/25 12:56:20;;;;;;;;;;;20.20;51.70;;;;;;5064778;28;43506;-83
2023/04/25 12:58:46;;;;;;;;;;;20.20;51.80;;;;;;5064736;28;42882;-84
2023/04/25 13:01:13;;;;;;;;;;;20.20;52.40;;;;;;5064587;28;44531;-81
2023/04/25 13:03:39;;;;;;;;;;;20.20;52.40;;;;;;5064204;28;43044;-84
2023/04/25 13:06:05;;;;;;;;;;;20.20;52.00;;;;;;5064567;28;42995;-82
2023/04/25 13:08:30;;;;;;;;;;;20.20;52.10;;;;;;5064926;28;42988;-78
2023/04/25 13:10:56;;;;;;;;;;;20.20;52.60;;;;;;5064616;28;43115;-83
2023/04/25 13:13:22;;;;;;;;;;;20.20;52.10;;;;;;5064673;28;43061;-83
2023/04/25 13:15:47;;;;;;;;;;;20.20;52.20;;;;;;5063931;28;43016;-82
2023/04/25 13:18:13;;;;;;;;;;;20.20;52.80;;;;;;5064241;28;42889;-81
2023/04/25 13:20:38;;;;;;;;;;;20.20;52.20;;;;;;5063814;28;43767;-80
2023/04/25 13:23:04;;;;;;;;;;;20.20;52.10;;;;;;5064001;28;42946;-84
2023/04/25 13:25:30;;;;;;;;;;;20.20;52.10;;;;;;5067170;28;43585;-83
2023/04/25 13:27:55;;;;;;;;;;;20.20;51.80;;;;;;5067801;28;42952;-83
2023/04/25 13:30:21;;;;;;;;;;;20.20;51.80;;;;;;5067123;28;43623;-80
2023/04/25 13:32:46;;;;;;;;;;;20.20;51.80;;;;;;5066874;28;43047;-82
2023/04/25 13:35:13;;;;;;;;;;;20.20;51.80;;;;;;5067432;28;43572;-83
2023/04/25 13:37:39;;;;;;;;;;;20.10;51.80;;;;;;5067526;28;42949;-84
2023/04/25 13:40:07;;;;;;;;;;;20.20;52.30;;;;;;5068060;28;43120;-83
2023/04/25 13:42:34;;;;;;;;;;;20.10;52.10;;;;;;5066213;28;42969;-83
2023/04/25 13:44:59;;;;;;;;;;;20.20;52.00;;;;;;5067003;28;42955;-83
2023/04/25 13:47:25;;;;;;;;;;;20.20;52.10;;;;;;5066371;28;43025;-84
2023/04/25 13:49:51;;;;;;;;;;;20.20;52.00;;;;;;5067601;28;42878;-84
2023/04/25 13:52:16;;;;;;;;;;;20.10;52.10;;;;;;5067566;28;42959;-82
2023/04/25 13:54:42;;;;;;;;;;;20.10;52.00;;;;;;5067148;28;42975;-81
2023/04/25 13:57:08;;;;;;;;;;;20.10;52.00;;;;;;5066827;28;43062;-83
2023/04/25 13:59:33;;;;;;;;;;;20.10;52.00;;;;;;5067396;28;42937;-83
2023/04/25 14:01:59;;;;;;;;;;;20.10;52.00;;;;;;5067394;28;43003;-81
2023/04/25 14:04:24;;;;;;;;;;;20.10;52.10;;;;;;5067281;28;44409;-83
2023/04/25 14:06:51;;;;;;;;;;;20.10;52.50;;;;;;5067222;28;43213;-83
2023/04/25 14:09:17;;;;;;;;;;;20.20;52.00;;;;;;5066767;28;43547;-84
2023/04/25 14:11:42;;;;;;;;;;;20.20;52.60;;;;;;5066924;28;42882;-83
2023/04/25 14:14:08;;;;;;;;;;;20.20;51.90;;;;;;5067386;28;42829;-84
2023/04/25 14:16:34;;;;;;;;;;;20.20;52.00;;;;;;5067218;28;42886;-83